Time;durP1;ratioP1;P1;durP2;ratioP2;P2;SDS_P1;SDS_P2;PMS_P1;PMS_P2;Temp;Humidity;BMP_temperature;BMP_pressure;BME280_temperature;BME280_humidity;BME280_pressure;Samples;Min_cycle;Max_cycle;Signal;HPM_P1;HPM_P2
2024/01/11 00:00:12;;;;;;;5.00;3.25;;;;;;;;;;5092344;28;20135;-58
2024/01/11 00:02:38;;;;;;;7.68;3.63;;;;;;;;;;5092109;28;20497;-60
2024/01/11 00:05:04;;;;;;;5.60;3.28;;;;;;;;;;5092596;28;20460;-59
2024/01/11 00:07:30;;;;;;;6.63;3.90;;;;;;;;;;5092192;28;20043;-58
2024/01/11 00:09:55;;;;;;;7.47;3.78;;;;;;;;;;5092545;28;20036;-59
2024/01/11 00:12:21;;;;;;;6.18;3.55;;;;;;;;;;5092425;28;20409;-60
2024/01/11 00:14:46;;;;;;;7.15;3.58;;;;;;;;;;5074000;28;20375;-58
2024/01/11 00:17:12;;;;;;;6.20;3.90;;;;;;;;;;5092276;28;20117;-59
2024/01/11 00:19:37;;;;;;;5.55;3.33;;;;;;;;;;5091857;28;20036;-60
2024/01/11 00:22:03;;;;;;;5.45;3.50;;;;;;;;;;5092137;28;20420;-59
2024/01/11 00:24:28;;;;;;;4.15;2.88;;;;;;;;;;5091702;28;20576;-59
2024/01/11 00:26:54;;;;;;;6.65;3.92;;;;;;;;;;5090655;28;20060;-59
2024/01/11 00:29:20;;;;;;;5.05;3.25;;;;;;;;;;5090905;28;20407;-57
2024/01/11 00:31:45;;;;;;;5.60;3.10;;;;;;;;;;5092387;28;20337;-62
2024/01/11 00:34:11;;;;;;;4.90;3.00;;;;;;;;;;5091011;28;20031;-58
2024/01/11 00:36:37;;;;;;;5.78;3.38;;;;;;;;;;5091054;28;20493;-59
2024/01/11 00:39:02;;;;;;;4.28;2.97;;;;;;;;;;5092158;28;20040;-60
2024/01/11 00:41:28;;;;;;;4.07;2.53;;;;;;;;;;5092191;28;20036;-62
2024/01/11 00:43:53;;;;;;;3.85;2.65;;;;;;;;;;5090607;28;20169;-59
2024/01/11 00:46:19;;;;;;;5.15;2.60;;;;;;;;;;5090681;28;20035;-58
2024/01/11 00:48:45;;;;;;;3.83;2.60;;;;;;;;;;5092100;28;20036;-58
2024/01/11 00:51:11;;;;;;;4.40;2.72;;;;;;;;;;5092028;28;20042;-60
2024/01/11 00:53:36;;;;;;;4.32;2.58;;;;;;;;;;5090128;28;20032;-59
2024/01/11 00:56:02;;;;;;;4.03;2.35;;;;;;;;;;5091663;28;20054;-60
2024/01/11 00:58:28;;;;;;;4.78;2.97;;;;;;;;;;5091842;28;20036;-60
2024/01/11 01:00:54;;;;;;;3.85;2.65;;;;;;;;;;5091321;28;20064;-59
2024/01/11 01:03:21;;;;;;;3.65;2.65;;;;;;;;;;5091398;28;20455;-60
2024/01/11 01:05:46;;;;;;;4.70;2.50;;;;;;;;;;5091529;28;20082;-59
2024/01/11 01:08:12;;;;;;;5.15;2.53;;;;;;;;;;5090154;28;20516;-57
2024/01/11 01:10:38;;;;;;;3.53;1.95;;;;;;;;;;5091824;28;20050;-59
2024/01/11 01:13:03;;;;;;;4.20;2.10;;;;;;;;;;5090499;28;20035;-58
2024/01/11 01:15:29;;;;;;;3.40;2.00;;;;;;;;;;5091755;28;20040;-59
2024/01/11 01:17:54;;;;;;;3.72;2.20;;;;;;;;;;5091253;28;20430;-59
2024/01/11 01:20:20;;;;;;;4.30;2.40;;;;;;;;;;5091685;28;20067;-61
2024/01/11 01:22:46;;;;;;;3.22;2.20;;;;;;;;;;5090325;28;20081;-59
2024/01/11 01:25:11;;;;;;;2.88;2.00;;;;;;;;;;5091388;28;20502;-58
2024/01/11 01:27:37;;;;;;;3.30;1.67;;;;;;;;;;5095066;28;20077;-61
2024/01/11 01:30:03;;;;;;;3.10;1.88;;;;;;;;;;5095973;28;20044;-60
2024/01/11 01:32:30;;;;;;;2.72;2.00;;;;;;;;;;5094238;28;20036;-58
2024/01/11 01:34:56;;;;;;;2.67;2.00;;;;;;;;;;5095897;28;20035;-60
2024/01/11 01:37:22;;;;;;;2.10;1.90;;;;;;;;;;5095301;28;20559;-58
2024/01/11 01:39:47;;;;;;;2.95;2.08;;;;;;;;;;5095836;28;20032;-60
2024/01/11 01:42:13;;;;;;;1.90;1.80;;;;;;;;;;5094415;28;20060;-58
2024/01/11 01:44:41;;;;;;;2.65;1.70;;;;;;;;;;5094092;28;20512;-59
2024/01/11 01:47:07;;;;;;;2.63;1.90;;;;;;;;;;5094050;28;20036;-60
2024/01/11 01:49:33;;;;;;;4.82;2.70;;;;;;;;;;5095087;28;20141;-59
2024/01/11 01:51:59;;;;;;;2.50;1.80;;;;;;;;;;5094180;28;20036;-60
2024/01/11 01:54:24;;;;;;;2.30;1.80;;;;;;;;;;5095044;28;20036;-58
2024/01/11 01:56:51;;;;;;;2.67;1.92;;;;;;;;;;5093999;28;20094;-58
2024/01/11 01:59:17;;;;;;;2.25;1.63;;;;;;;;;;5095277;28;20028;-59
2024/01/11 02:01:43;;;;;;;3.10;1.73;;;;;;;;;;5094500;28;20132;-60
2024/01/11 02:04:08;;;;;;;2.38;1.88;;;;;;;;;;5095316;28;20529;-58
2024/01/11 02:06:34;;;;;;;1.60;1.50;;;;;;;;;;5095264;28;20386;-60
2024/01/11 02:09:02;;;;;;;2.35;1.95;;;;;;;;;;5093636;28;20125;-59
2024/01/11 02:11:28;;;;;;;2.05;1.70;;;;;;;;;;5094818;28;20040;-59
2024/01/11 02:13:54;;;;;;;2.58;1.95;;;;;;;;;;5095017;28;20036;-59
2024/01/11 02:16:20;;;;;;;1.50;1.40;;;;;;;;;;5094695;28;20063;-58
2024/01/11 02:18:46;;;;;;;1.73;1.60;;;;;;;;;;5094437;28;20028;-59
2024/01/11 02:21:13;;;;;;;2.03;1.83;;;;;;;;;;5093414;28;20036;-59
2024/01/11 02:23:53;;;;;;;2.80;1.95;;;;;;;;;;5094802;28;20218;-60
2024/01/11 02:26:22;;;;;;;2.58;1.88;;;;;;;;;;5094519;28;20039;-59
2024/01/11 02:28:47;;;;;;;2.78;1.88;;;;;;;;;;5076543;28;20031;-58
2024/01/11 02:31:13;;;;;;;3.05;1.83;;;;;;;;;;5094703;28;20047;-60
2024/01/11 02:33:39;;;;;;;2.33;1.83;;;;;;;;;;5094473;28;20489;-58
2024/01/11 02:36:06;;;;;;;1.95;1.70;;;;;;;;;;5094587;28;20093;-60
2024/01/11 02:38:33;;;;;;;3.05;1.83;;;;;;;;;;5091976;28;20497;-59
2024/01/11 02:40:59;;;;;;;2.40;1.75;;;;;;;;;;5094295;28;20570;-59
2024/01/11 02:43:25;;;;;;;2.40;1.85;;;;;;;;;;5092878;28;20067;-59
2024/01/11 02:45:53;;;;;;;2.45;1.85;;;;;;;;;;5094217;28;20071;-59
2024/01/11 02:48:19;;;;;;;1.70;1.60;;;;;;;;;;5094033;28;20511;-59
2024/01/11 02:50:45;;;;;;;3.17;1.85;;;;;;;;;;5094332;28;20036;-60
2024/01/11 02:53:10;;;;;;;2.40;1.80;;;;;;;;;;5092650;28;20497;-59
2024/01/11 02:55:36;;;;;;;3.10;1.67;;;;;;;;;;5094204;28;20066;-60
2024/01/11 02:58:01;;;;;;;2.45;1.67;;;;;;;;;;5093674;28;20040;-58
2024/01/11 03:00:27;;;;;;;2.00;1.60;;;;;;;;;;5093619;28;20056;-55
2024/01/11 03:02:53;;;;;;;1.95;1.60;;;;;;;;;;5093865;28;20146;-57
2024/01/11 03:05:18;;;;;;;2.35;1.90;;;;;;;;;;5093570;28;20528;-58
2024/01/11 03:07:44;;;;;;;2.08;1.63;;;;;;;;;;5092337;28;20047;-60
2024/01/11 03:10:10;;;;;;;2.95;2.08;;;;;;;;;;5092083;28;20035;-59
2024/01/11 03:12:36;;;;;;;2.58;1.80;;;;;;;;;;5093827;28;20032;-59
2024/01/11 03:15:01;;;;;;;1.85;1.73;;;;;;;;;;5093921;28;20036;-57
2024/01/11 03:17:29;;;;;;;1.63;1.52;;;;;;;;;;5093392;28;20051;-59
2024/01/11 03:19:54;;;;;;;4.00;1.73;;;;;;;;;;5092947;28;20044;-57
2024/01/11 03:22:20;;;;;;;4.05;2.10;;;;;;;;;;5093396;28;20039;-60
2024/01/11 03:24:46;;;;;;;1.70;1.50;;;;;;;;;;5092362;28;20122;-60
2024/01/11 03:27:11;;;;;;;2.13;1.60;;;;;;;;;;5092441;28;20036;-59
2024/01/11 03:29:37;;;;;;;2.17;1.73;;;;;;;;;;5093545;28;20032;-59
2024/01/11 03:32:02;;;;;;;2.53;1.55;;;;;;;;;;5093407;28;20068;-60
2024/01/11 03:34:28;;;;;;;3.20;2.00;;;;;;;;;;5093369;28;20473;-57
2024/01/11 03:36:53;;;;;;;1.42;1.33;;;;;;;;;;5092877;28;20487;-61
2024/01/11 03:39:19;;;;;;;2.70;1.80;;;;;;;;;;5093268;28;20031;-59
2024/01/11 03:41:45;;;;;;;2.25;1.42;;;;;;;;;;5093027;28;20144;-61
2024/01/11 03:44:10;;;;;;;2.13;1.40;;;;;;;;;;5093296;28;20032;-58
2024/01/11 03:46:36;;;;;;;2.75;1.40;;;;;;;;;;5092870;28;20425;-60
2024/01/11 03:49:02;;;;;;;2.75;1.35;;;;;;;;;;5092642;28;20036;-59
2024/01/11 03:51:27;;;;;;;2.88;1.30;;;;;;;;;;5092780;28;20524;-59
2024/01/11 03:53:53;;;;;;;1.73;1.13;;;;;;;;;;5093089;28;20044;-59
2024/01/11 03:56:19;;;;;;;2.38;1.27;;;;;;;;;;5072218;28;20055;-59
2024/01/11 03:58:45;;;;;;;1.52;1.20;;;;;;;;;;5071236;28;20036;-58
2024/01/11 04:01:10;;;;;;;2.55;1.42;;;;;;;;;;5072152;28;20545;-58
2024/01/11 04:03:37;;;;;;;1.63;1.13;;;;;;;;;;5080554;28;20027;-59
2024/01/11 04:06:03;;;;;;;1.10;1.00;;;;;;;;;;5092590;28;20159;-60
2024/01/11 04:08:29;;;;;;;2.22;1.00;;;;;;;;;;5092586;28;20034;-59
2024/01/11 04:10:54;;;;;;;1.42;1.10;;;;;;;;;;5093067;28;20122;-60
2024/01/11 04:13:20;;;;;;;1.63;1.10;;;;;;;;;;5092449;28;20401;-57
2024/01/11 04:15:45;;;;;;;2.15;1.17;;;;;;;;;;5092690;28;20353;-59
2024/01/11 04:18:11;;;;;;;1.38;1.25;;;;;;;;;;5090847;28;20123;-58
2024/01/11 04:20:37;;;;;;;1.58;1.40;;;;;;;;;;5091303;28;20051;-59
2024/01/11 04:23:02;;;;;;;2.30;1.40;;;;;;;;;;5092350;28;20024;-59
2024/01/11 04:25:28;;;;;;;1.65;1.42;;;;;;;;;;5092179;28;20036;-59
2024/01/11 04:27:54;;;;;;;1.55;1.30;;;;;;;;;;5091882;28;20032;-57
2024/01/11 04:30:19;;;;;;;1.33;1.23;;;;;;;;;;5091793;28;20143;-60
2024/01/11 04:32:45;;;;;;;1.98;1.27;;;;;;;;;;5091781;28;20070;-60
2024/01/11 04:35:10;;;;;;;1.98;1.55;;;;;;;;;;5092271;28;20401;-58
2024/01/11 04:37:36;;;;;;;0.98;0.98;;;;;;;;;;5091800;28;20413;-62
2024/01/11 04:40:03;;;;;;;2.42;1.30;;;;;;;;;;5090791;28;20036;-60
2024/01/11 04:42:29;;;;;;;1.20;1.10;;;;;;;;;;5091117;28;20032;-60
2024/01/11 04:44:55;;;;;;;1.00;0.98;;;;;;;;;;5092027;28;20165;-60
2024/01/11 04:47:20;;;;;;;1.20;1.10;;;;;;;;;;5092067;28;20090;-59
2024/01/11 04:49:46;;;;;;;1.00;1.00;;;;;;;;;;5091892;28;20028;-60
2024/01/11 04:52:12;;;;;;;1.00;1.00;;;;;;;;;;5090230;28;20040;-60
2024/01/11 04:54:37;;;;;;;1.35;1.13;;;;;;;;;;5089986;28;20032;-61
2024/01/11 04:57:03;;;;;;;1.65;1.10;;;;;;;;;;5087386;28;20048;-58
2024/01/11 04:59:29;;;;;;;2.03;1.20;;;;;;;;;;5087914;28;20039;-62
2024/01/11 05:01:55;;;;;;;1.20;1.10;;;;;;;;;;5087580;28;20532;-59
2024/01/11 05:04:20;;;;;;;1.15;0.90;;;;;;;;;;5089316;28;20081;-61
2024/01/11 05:06:46;;;;;;;1.48;1.38;;;;;;;;;;5087361;28;20135;-61
2024/01/11 05:09:12;;;;;;;1.13;0.90;;;;;;;;;;5089284;28;20063;-62
2024/01/11 05:11:37;;;;;;;1.10;1.00;;;;;;;;;;5090658;28;20097;-69
2024/01/11 05:14:04;;;;;;;1.10;1.00;;;;;;;;;;5091377;28;20040;-60
2024/01/11 05:16:30;;;;;;;1.25;1.15;;;;;;;;;;5089618;28;20047;-59
2024/01/11 05:18:56;;;;;;;1.85;1.00;;;;;;;;;;5089508;28;20542;-60
2024/01/11 05:21:23;;;;;;;2.17;1.05;;;;;;;;;;5088168;28;20354;-59
2024/01/11 05:23:48;;;;;;;2.80;1.40;;;;;;;;;;5084892;28;20058;-60
2024/01/11 05:26:15;;;;;;;1.42;1.10;;;;;;;;;;5086631;28;20504;-58
2024/01/11 05:28:40;;;;;;;1.13;0.98;;;;;;;;;;5086948;28;20032;-60
2024/01/11 05:31:10;;;;;;;1.30;1.20;;;;;;;;;;5086137;28;20062;-59
2024/01/11 05:33:37;;;;;;;1.33;1.23;;;;;;;;;;5087624;28;20035;-60
2024/01/11 05:36:03;;;;;;;2.20;1.40;;;;;;;;;;5090214;28;20044;-61
2024/01/11 05:38:29;;;;;;;1.13;1.00;;;;;;;;;;5091207;28;20375;-60
2024/01/11 05:40:54;;;;;;;1.40;1.30;;;;;;;;;;5079451;28;20041;-59
2024/01/11 05:43:20;;;;;;;1.30;1.20;;;;;;;;;;5073279;28;20039;-59
2024/01/11 05:45:46;;;;;;;1.08;1.08;;;;;;;;;;5084923;28;20032;-58
2024/01/11 05:48:11;;;;;;;1.27;1.00;;;;;;;;;;5070964;28;20494;-59
2024/01/11 05:50:37;;;;;;;0.90;0.90;;;;;;;;;;5084593;28;20028;-60
2024/01/11 05:53:03;;;;;;;1.30;1.20;;;;;;;;;;5091083;28;20588;-59
2024/01/11 05:55:28;;;;;;;1.15;1.02;;;;;;;;;;5091134;28;20040;-61
2024/01/11 05:57:54;;;;;;;1.90;1.42;;;;;;;;;;5090670;28;20050;-57
2024/01/11 06:00:19;;;;;;;1.20;1.10;;;;;;;;;;5090637;28;20064;-60
2024/01/11 06:02:45;;;;;;;1.20;1.10;;;;;;;;;;5087846;28;20036;-58
2024/01/11 06:05:12;;;;;;;1.75;1.25;;;;;;;;;;5070795;28;20037;-60
2024/01/11 06:07:38;;;;;;;1.27;1.10;;;;;;;;;;5070466;28;20123;-61
2024/01/11 06:10:05;;;;;;;1.00;1.00;;;;;;;;;;5086718;28;20119;-61
2024/01/11 06:12:31;;;;;;;0.90;0.90;;;;;;;;;;5090780;28;20032;-58
2024/01/11 06:14:57;;;;;;;1.30;1.20;;;;;;;;;;5094089;28;20444;-59
2024/01/11 06:17:23;;;;;;;1.30;1.10;;;;;;;;;;5094116;28;20044;-59
2024/01/11 06:19:49;;;;;;;2.17;1.00;;;;;;;;;;5094257;28;20501;-56
2024/01/11 06:22:14;;;;;;;1.20;1.10;;;;;;;;;;5093768;28;20085;-60
2024/01/11 06:24:40;;;;;;;2.20;1.42;;;;;;;;;;5094544;28;20139;-58
2024/01/11 06:27:06;;;;;;;2.13;1.15;;;;;;;;;;5094248;28;20086;-61
2024/01/11 06:29:31;;;;;;;0.90;0.90;;;;;;;;;;5076104;28;20104;-58
2024/01/11 06:31:57;;;;;;;0.88;0.88;;;;;;;;;;5075532;28;20039;-60
2024/01/11 06:34:22;;;;;;;1.10;1.05;;;;;;;;;;5093926;28;20043;-60
2024/01/11 06:36:48;;;;;;;1.33;0.98;;;;;;;;;;5092155;28;20044;-62
2024/01/11 06:39:13;;;;;;;1.33;1.23;;;;;;;;;;5093669;28;20043;-60
2024/01/11 06:41:39;;;;;;;1.05;1.02;;;;;;;;;;5092613;28;20081;-60
2024/01/11 06:44:05;;;;;;;1.35;1.15;;;;;;;;;;5094458;28;20110;-59
2024/01/11 06:46:30;;;;;;;3.63;1.90;;;;;;;;;;5093922;28;20039;-61
2024/01/11 06:48:56;;;;;;;1.77;1.42;;;;;;;;;;5092537;28;20044;-60
2024/01/11 06:51:22;;;;;;;2.42;1.60;;;;;;;;;;5088200;28;20555;-59
2024/01/11 06:53:48;;;;;;;2.72;1.60;;;;;;;;;;5093940;28;20028;-58
2024/01/11 06:56:16;;;;;;;1.55;1.10;;;;;;;;;;5092208;28;20127;-57
2024/01/11 06:58:42;;;;;;;3.40;1.60;;;;;;;;;;5093239;28;20401;-58
2024/01/11 07:01:08;;;;;;;1.85;1.48;;;;;;;;;;5093647;28;20071;-59
2024/01/11 07:03:34;;;;;;;1.90;1.40;;;;;;;;;;5092839;28;20024;-58
2024/01/11 07:05:59;;;;;;;3.03;1.63;;;;;;;;;;5091002;28;20047;-61
2024/01/11 07:08:25;;;;;;;2.65;1.65;;;;;;;;;;5093003;28;20063;-58
2024/01/11 07:10:50;;;;;;;2.47;1.40;;;;;;;;;;5092031;28;20040;-59
2024/01/11 07:13:16;;;;;;;4.07;1.45;;;;;;;;;;5090739;28;20036;-58
2024/01/11 07:15:43;;;;;;;1.80;1.42;;;;;;;;;;5092901;28;20036;-57
2024/01/11 07:18:09;;;;;;;1.92;1.33;;;;;;;;;;5091277;28;20134;-57
2024/01/11 07:20:34;;;;;;;2.42;1.75;;;;;;;;;;5092084;28;20119;-59
2024/01/11 07:23:00;;;;;;;1.20;1.10;;;;;;;;;;5092866;28;20036;-59
2024/01/11 07:25:26;;;;;;;2.42;1.60;;;;;;;;;;5091990;28;20043;-58
2024/01/11 07:27:52;;;;;;;1.15;1.05;;;;;;;;;;5092770;28;20036;-59
2024/01/11 07:30:20;;;;;;;3.65;1.90;;;;;;;;;;5090172;28;20040;-63
2024/01/11 07:32:46;;;;;;;2.08;1.48;;;;;;;;;;5093142;28;20409;-58
2024/01/11 07:35:12;;;;;;;2.67;1.80;;;;;;;;;;5092100;28;20036;-57
2024/01/11 07:37:38;;;;;;;2.90;1.80;;;;;;;;;;5092820;28;20046;-58
2024/01/11 07:40:05;;;;;;;3.65;1.60;;;;;;;;;;5092453;28;20032;-57
2024/01/11 07:42:30;;;;;;;3.28;1.90;;;;;;;;;;5091977;28;20165;-58
2024/01/11 07:44:56;;;;;;;2.85;2.00;;;;;;;;;;5092613;28;20118;-57
2024/01/11 07:47:22;;;;;;;2.65;1.70;;;;;;;;;;5092859;28;20358;-56
2024/01/11 07:49:48;;;;;;;2.83;1.88;;;;;;;;;;5091237;28;20036;-56
2024/01/11 07:52:14;;;;;;;1.50;1.40;;;;;;;;;;5090729;28;20704;-60
2024/01/11 07:54:40;;;;;;;1.60;1.50;;;;;;;;;;5092712;28;20032;-58
2024/01/11 07:57:05;;;;;;;4.80;1.58;;;;;;;;;;5092482;28;20047;-58
2024/01/11 07:59:35;;;;;;;3.22;1.52;;;;;;;;;;5092581;28;20537;-63
2024/01/11 08:02:01;;;;;;;3.95;1.30;;;;;;;;;;5092124;28;20517;-59
2024/01/11 08:04:27;;;;;;;1.50;1.27;;;;;;;;;;5075627;28;20067;-61
2024/01/11 08:06:53;;;;;;;2.95;1.38;;;;;;;;;;5073543;28;20508;-61
2024/01/11 08:09:18;;;;;;;2.15;1.55;;;;;;;;;;5091042;28;20406;-61
2024/01/11 08:11:45;;;;;;;2.55;1.65;;;;;;;;;;5092211;28;20139;-62
2024/01/11 08:14:11;;;;;;;3.85;1.50;;;;;;;;;;5092346;28;20028;-61
2024/01/11 08:16:37;;;;;;;2.35;1.40;;;;;;;;;;5092257;28;20417;-63
2024/01/11 08:19:03;;;;;;;1.63;1.30;;;;;;;;;;5092080;28;20165;-60
2024/01/11 08:21:29;;;;;;;1.42;1.30;;;;;;;;;;5090616;28;20481;-60
2024/01/11 08:23:54;;;;;;;1.02;1.00;;;;;;;;;;5090213;28;20119;-65
2024/01/11 08:26:21;;;;;;;1.67;1.40;;;;;;;;;;5077432;28;20568;-67
2024/01/11 08:28:47;;;;;;;1.98;1.27;;;;;;;;;;5052638;28;20037;-60
2024/01/11 08:31:13;;;;;;;1.95;1.40;;;;;;;;;;5071692;28;20044;-65
2024/01/11 08:33:39;;;;;;;2.58;1.40;;;;;;;;;;5071423;28;20032;-62
2024/01/11 08:36:06;;;;;;;2.50;1.40;;;;;;;;;;5087503;28;20037;-58
2024/01/11 08:38:31;;;;;;;0.50;0.50;;;;;;;;;;5090969;28;20040;-60
2024/01/11 08:40:58;;;;;;;2.28;0.60;;;;;;;;;;5087056;28;20047;-60
2024/01/11 08:43:27;;;;;;;0.77;0.77;;;;;;;;;;5069448;28;20056;-60
2024/01/11 08:45:52;;;;;;;1.10;0.70;;;;;;;;;;5071253;28;20094;-59
2024/01/11 08:48:18;;;;;;;3.60;1.20;;;;;;;;;;5068262;28;20383;-60
2024/01/11 08:50:43;;;;;;;0.75;0.70;;;;;;;;;;5069428;28;20449;-61
2024/01/11 08:53:09;;;;;;;0.60;0.60;;;;;;;;;;5071158;28;20036;-58
2024/01/11 08:55:35;;;;;;;0.70;0.70;;;;;;;;;;5071247;28;20037;-59
2024/01/11 08:58:00;;;;;;;0.73;0.70;;;;;;;;;;5071063;28;20048;-55
2024/01/11 09:00:26;;;;;;;0.80;0.80;;;;;;;;;;5070957;28;20064;-59
2024/01/11 09:02:52;;;;;;;1.40;1.00;;;;;;;;;;5073207;28;20041;-58
2024/01/11 09:05:17;;;;;;;1.13;1.02;;;;;;;;;;5089973;28;20040;-60
2024/01/11 09:07:43;;;;;;;1.20;1.10;;;;;;;;;;5090141;28;20557;-58
2024/01/11 09:10:09;;;;;;;1.90;1.25;;;;;;;;;;5091478;28;20164;-58
2024/01/11 09:12:36;;;;;;;1.13;1.05;;;;;;;;;;5091217;28;20123;-62
2024/01/11 09:15:02;;;;;;;2.22;1.20;;;;;;;;;;5091430;28;20035;-58
2024/01/11 09:17:32;;;;;;;1.10;1.10;;;;;;;;;;5090860;28;20044;-58
2024/01/11 09:19:58;;;;;;;1.00;1.00;;;;;;;;;;5091294;28;20036;-59
2024/01/11 09:22:24;;;;;;;1.45;1.20;;;;;;;;;;5091348;28;20445;-58
2024/01/11 09:24:50;;;;;;;1.27;1.10;;;;;;;;;;5091467;28;20028;-59
2024/01/11 09:27:16;;;;;;;1.35;1.25;;;;;;;;;;5090736;28;20046;-60
2024/01/11 09:29:45;;;;;;;1.15;1.05;;;;;;;;;;5091128;28;20118;-57
2024/01/11 09:32:11;;;;;;;0.88;0.88;;;;;;;;;;5090849;28;20044;-60
2024/01/11 09:34:37;;;;;;;3.28;1.10;;;;;;;;;;5091182;28;20286;-60
2024/01/11 09:37:03;;;;;;;0.88;0.88;;;;;;;;;;5089682;28;20052;-61
2024/01/11 09:39:29;;;;;;;0.80;0.80;;;;;;;;;;5091144;28;20032;-59
2024/01/11 09:41:58;;;;;;;3.47;0.88;;;;;;;;;;5090780;28;20105;-59
2024/01/11 09:44:25;;;;;;;3.28;1.23;;;;;;;;;;5091222;28;20485;-59
2024/01/11 09:46:51;;;;;;;0.90;0.90;;;;;;;;;;5089328;28;20040;-59
2024/01/11 09:49:17;;;;;;;3.08;1.30;;;;;;;;;;5094916;28;20405;-58
2024/01/11 09:51:43;;;;;;;1.52;1.30;;;;;;;;;;5095097;28;20048;-61
2024/01/11 09:54:10;;;;;;;1.38;1.27;;;;;;;;;;5094984;28;20431;-62
2024/01/11 09:56:36;;;;;;;2.13;1.73;;;;;;;;;;5094916;28;20075;-59
2024/01/11 09:59:06;;;;;;;2.45;1.55;;;;;;;;;;5093435;28;20066;-61
2024/01/11 10:01:31;;;;;;;1.38;1.20;;;;;;;;;;5092577;28;20433;-61
2024/01/11 10:03:57;;;;;;;1.52;1.15;;;;;;;;;;5082930;28;20024;-61
2024/01/11 10:06:23;;;;;;;1.35;1.13;;;;;;;;;;5072807;28;20036;-62
2024/01/11 10:08:49;;;;;;;1.52;1.42;;;;;;;;;;5074511;28;20520;-61
2024/01/11 10:11:15;;;;;;;2.83;1.30;;;;;;;;;;5074442;28;20033;-58
2024/01/11 10:13:40;;;;;;;1.75;1.17;;;;;;;;;;5074181;28;20111;-59
2024/01/11 10:16:07;;;;;;;1.10;1.00;;;;;;;;;;5073879;28;20033;-59
2024/01/11 10:18:33;;;;;;;1.00;1.00;;;;;;;;;;5074091;28;20060;-58
2024/01/11 10:20:58;;;;;;;2.13;1.30;;;;;;;;;;5074150;28;20125;-58
2024/01/11 10:23:24;;;;;;;1.40;1.30;;;;;;;;;;5073881;28;20470;-59
2024/01/11 10:25:49;;;;;;;1.02;1.02;;;;;;;;;;5072711;28;20036;-60
2024/01/11 10:28:16;;;;;;;0.80;0.80;;;;;;;;;;5073669;28;20050;-65
2024/01/11 10:30:45;;;;;;;0.95;0.95;;;;;;;;;;5072355;28;20041;-58
2024/01/11 10:33:11;;;;;;;1.00;1.00;;;;;;;;;;5089947;28;20482;-62
2024/01/11 10:35:36;;;;;;;0.90;0.82;;;;;;;;;;5094388;28;20070;-58
2024/01/11 10:38:05;;;;;;;2.78;1.42;;;;;;;;;;5091981;28;20067;-59
2024/01/11 10:40:31;;;;;;;1.20;0.93;;;;;;;;;;5069946;28;20406;-57
2024/01/11 10:42:59;;;;;;;1.20;1.10;;;;;;;;;;5091364;28;20032;-57
2024/01/11 10:45:25;;;;;;;1.33;1.23;;;;;;;;;;5091639;28;20485;-58
2024/01/11 10:47:57;;;;;;;2.20;1.40;;;;;;;;;;5093863;28;20082;-60
2024/01/11 10:50:23;;;;;;;1.02;1.00;;;;;;;;;;5092371;28;20039;-60
2024/01/11 10:53:03;;;;;;;2.00;1.35;;;;;;;;;;5093622;28;20102;-59
2024/01/11 10:55:31;;;;;;;2.13;1.00;;;;;;;;;;5093779;28;20035;-58
2024/01/11 10:57:58;;;;;;;3.22;1.10;;;;;;;;;;5092076;28;20048;-60
2024/01/11 11:00:24;;;;;;;1.25;1.15;;;;;;;;;;5072412;28;20070;-58
2024/01/11 11:02:51;;;;;;;1.42;1.17;;;;;;;;;;5088897;28;20032;-61
2024/01/11 11:05:18;;;;;;;3.08;1.90;;;;;;;;;;5073136;28;20029;-59
2024/01/11 11:07:44;;;;;;;1.63;1.40;;;;;;;;;;5089939;28;20044;-59
2024/01/11 11:10:11;;;;;;;1.17;1.02;;;;;;;;;;5093582;28;20501;-58
2024/01/11 11:12:37;;;;;;;1.15;1.15;;;;;;;;;;5092625;28;20409;-59
2024/01/11 11:15:05;;;;;;;1.45;1.20;;;;;;;;;;5088615;28;20028;-56
2024/01/11 11:17:34;;;;;;;2.00;1.55;;;;;;;;;;5092163;28;20055;-58
2024/01/11 11:20:00;;;;;;;0.90;0.90;;;;;;;;;;5093047;28;20051;-57
2024/01/11 11:22:33;;;;;;;2.70;1.55;;;;;;;;;;5093348;28;20028;-59
2024/01/11 11:25:23;;;;;;;1.27;1.17;;;;;;;;;;5089568;28;20042;-57
2024/01/11 11:27:49;;;;;;;2.30;1.35;;;;;;;;;;5091661;28;20032;-57
2024/01/11 11:30:14;;;;;;;1.33;1.23;;;;;;;;;;5093119;28;20051;-58
2024/01/11 11:32:43;;;;;;;1.52;1.10;;;;;;;;;;5092977;28;20035;-59
2024/01/11 11:35:09;;;;;;;1.42;1.25;;;;;;;;;;5093131;28;20040;-59
2024/01/11 11:37:38;;;;;;;2.17;1.88;;;;;;;;;;5093044;28;20043;-58
2024/01/11 11:40:13;;;;;;;1.80;1.30;;;;;;;;;;5092393;28;20028;-57
2024/01/11 11:42:39;;;;;;;1.60;1.50;;;;;;;;;;5079946;28;20032;-58
2024/01/11 11:45:06;;;;;;;1.38;1.17;;;;;;;;;;5080494;28;20044;-58
2024/01/11 11:47:33;;;;;;;1.95;1.48;;;;;;;;;;5091336;28;20036;-59
2024/01/11 11:50:12;;;;;;;2.80;1.50;;;;;;;;;;5086102;28;20028;-56
2024/01/11 11:52:38;;;;;;;1.58;1.48;;;;;;;;;;5092834;28;20036;-56
2024/01/11 11:55:04;;;;;;;2.35;1.58;;;;;;;;;;5092833;28;20101;-58
2024/01/11 11:57:30;;;;;;;1.52;1.42;;;;;;;;;;5092371;28;20054;-60
2024/01/11 11:59:57;;;;;;;3.88;1.95;;;;;;;;;;5092148;28;20525;-57
2024/01/11 12:02:24;;;;;;;4.22;1.70;;;;;;;;;;5091313;28;20497;-56
2024/01/11 12:04:50;;;;;;;1.60;1.50;;;;;;;;;;5090937;28;20039;-58
2024/01/11 12:07:16;;;;;;;3.35;2.03;;;;;;;;;;5092740;28;20036;-55
2024/01/11 12:09:42;;;;;;;3.80;2.05;;;;;;;;;;5090826;28;20031;-58
2024/01/11 12:12:08;;;;;;;2.58;1.70;;;;;;;;;;5091839;28;20040;-58
2024/01/11 12:14:34;;;;;;;1.40;1.30;;;;;;;;;;5092130;28;20278;-57
2024/01/11 12:17:00;;;;;;;1.60;1.52;;;;;;;;;;5092223;28;20161;-58
2024/01/11 12:19:25;;;;;;;2.50;1.58;;;;;;;;;;5090782;28;20122;-59
2024/01/11 12:21:51;;;;;;;1.70;1.55;;;;;;;;;;5092172;28;20096;-59
2024/01/11 12:24:17;;;;;;;1.67;1.17;;;;;;;;;;5092146;28;20040;-59
2024/01/11 12:26:43;;;;;;;1.00;1.00;;;;;;;;;;5091164;28;20035;-60
2024/01/11 12:29:09;;;;;;;1.52;1.40;;;;;;;;;;5091915;28;20039;-59
2024/01/11 12:31:38;;;;;;;1.90;1.50;;;;;;;;;;5092222;28;20047;-58
2024/01/11 12:34:03;;;;;;;2.65;2.08;;;;;;;;;;5091598;28;20036;-58
2024/01/11 12:36:29;;;;;;;2.80;1.90;;;;;;;;;;5091772;28;20089;-60
2024/01/11 12:38:55;;;;;;;1.83;1.50;;;;;;;;;;5090329;28;20089;-58
2024/01/11 12:41:22;;;;;;;2.13;1.88;;;;;;;;;;5090698;28;20123;-60
2024/01/11 12:43:48;;;;;;;3.65;1.80;;;;;;;;;;5091448;28;20390;-58
2024/01/11 12:46:14;;;;;;;1.20;1.10;;;;;;;;;;5088128;28;20044;-59
2024/01/11 12:48:39;;;;;;;5.38;2.67;;;;;;;;;;5091478;28;20409;-58
2024/01/11 12:51:05;;;;;;;3.60;2.20;;;;;;;;;;5091387;28;20036;-60
2024/01/11 12:53:31;;;;;;;1.35;1.23;;;;;;;;;;5091496;28;20047;-59
2024/01/11 12:56:03;;;;;;;1.83;1.23;;;;;;;;;;5091134;28;20032;-58
2024/01/11 12:58:29;;;;;;;2.63;1.90;;;;;;;;;;5089845;28;20509;-58
2024/01/11 13:00:55;;;;;;;2.20;1.98;;;;;;;;;;5091403;28;20065;-58
2024/01/11 13:03:20;;;;;;;1.98;1.63;;;;;;;;;;5085524;28;20036;-57
2024/01/11 13:05:46;;;;;;;1.75;1.50;;;;;;;;;;5084269;28;20501;-60
2024/01/11 13:08:12;;;;;;;3.75;2.10;;;;;;;;;;5090188;28;20032;-58
2024/01/11 13:10:37;;;;;;;2.53;1.60;;;;;;;;;;5091445;28;20047;-59
2024/01/11 13:13:04;;;;;;;2.15;1.67;;;;;;;;;;5090394;28;20077;-59
2024/01/11 13:15:31;;;;;;;1.95;1.60;;;;;;;;;;5089610;28;20390;-58
2024/01/11 13:17:57;;;;;;;1.80;1.48;;;;;;;;;;5091447;28;20054;-60
2024/01/11 13:20:23;;;;;;;1.92;1.45;;;;;;;;;;5091112;28;20028;-58
2024/01/11 13:23:13;;;;;;;3.15;2.05;;;;;;;;;;5090151;28;20081;-59
2024/01/11 13:25:40;;;;;;;1.77;1.50;;;;;;;;;;5090450;28;20043;-58
2024/01/11 13:28:06;;;;;;;4.32;2.35;;;;;;;;;;5089645;28;20032;-57
2024/01/11 13:30:32;;;;;;;1.67;1.58;;;;;;;;;;5066742;28;20070;-59
2024/01/11 13:32:58;;;;;;;1.70;1.60;;;;;;;;;;5080020;28;20036;-58
2024/01/11 13:35:23;;;;;;;2.63;1.55;;;;;;;;;;5090772;28;20562;-59
2024/01/11 13:37:49;;;;;;;2.97;1.92;;;;;;;;;;5091634;28;20040;-57
2024/01/11 13:40:15;;;;;;;3.60;2.92;;;;;;;;;;5087729;28;20044;-59
2024/01/11 13:42:40;;;;;;;4.00;2.42;;;;;;;;;;5090587;28;20485;-59
2024/01/11 13:45:08;;;;;;;1.75;1.50;;;;;;;;;;5090476;28;20070;-59
2024/01/11 13:47:34;;;;;;;2.50;1.58;;;;;;;;;;5091253;28;20055;-61
2024/01/11 13:50:01;;;;;;;2.28;1.65;;;;;;;;;;5090772;28;20066;-60
2024/01/11 13:52:26;;;;;;;4.35;2.20;;;;;;;;;;5092628;28;20048;-59
2024/01/11 13:54:52;;;;;;;2.45;2.15;;;;;;;;;;5090518;28;20032;-59
2024/01/11 13:57:18;;;;;;;2.78;1.95;;;;;;;;;;5091145;28;20044;-61
2024/01/11 13:59:43;;;;;;;1.70;1.55;;;;;;;;;;5090928;28;20405;-60
2024/01/11 14:02:09;;;;;;;1.85;1.45;;;;;;;;;;5091255;28;20040;-58
2024/01/11 14:04:35;;;;;;;3.20;1.80;;;;;;;;;;5076581;28;20032;-60
2024/01/11 14:07:03;;;;;;;6.50;2.38;;;;;;;;;;5091117;28;20043;-60
2024/01/11 14:09:29;;;;;;;3.25;2.10;;;;;;;;;;5090448;28;20035;-60
2024/01/11 14:11:54;;;;;;;3.00;1.80;;;;;;;;;;5089706;28;20416;-59
2024/01/11 14:14:20;;;;;;;3.42;1.95;;;;;;;;;;5090948;28;20028;-58
2024/01/11 14:16:46;;;;;;;3.97;1.63;;;;;;;;;;5090748;28;20075;-60
2024/01/11 14:19:12;;;;;;;2.22;2.00;;;;;;;;;;5090743;28;20149;-62
2024/01/11 14:21:38;;;;;;;1.65;1.52;;;;;;;;;;5090956;28;20054;-63
2024/01/11 14:24:04;;;;;;;6.00;2.60;;;;;;;;;;5090668;28;20044;-62
2024/01/11 14:26:30;;;;;;;2.80;2.10;;;;;;;;;;5091659;28;20497;-62
2024/01/11 14:28:56;;;;;;;3.80;2.00;;;;;;;;;;5091696;28;20454;-63
2024/01/11 14:31:22;;;;;;;1.88;1.40;;;;;;;;;;5091926;28;20095;-62
2024/01/11 14:33:48;;;;;;;2.88;1.38;;;;;;;;;;5071598;28;20033;-61
2024/01/11 14:36:14;;;;;;;2.08;1.48;;;;;;;;;;5091216;28;20405;-62